sensor_id;sensor_type;location;lat;lon;timestamp;temperature;humidity
38726;DHT22;24474;48.906;8.808;2023-06-04T00:01:37;15.60;97.70
38726;DHT22;24474;48.906;8.808;2023-06-04T00:04:02;15.60;97.70
38726;DHT22;24474;48.906;8.808;2023-06-04T00:06:28;15.60;97.80
38726;DHT22;24474;48.906;8.808;2023-06-04T00:08:54;15.50;97.80
38726;DHT22;24474;48.906;8.808;2023-06-04T00:11:19;15.50;97.80
38726;DHT22;24474;48.906;8.808;2023-06-04T00:13:45;15.40;97.90
38726;DHT22;24474;48.906;8.808;2023-06-04T00:16:11;15.40;98.00
38726;DHT22;24474;48.906;8.808;2023-06-04T00:18:37;15.40;98.10
38726;DHT22;24474;48.906;8.808;2023-06-04T00:21:03;15.40;98.10
38726;DHT22;24474;48.906;8.808;2023-06-04T00:23:28;15.40;98.20
38726;DHT22;24474;48.906;8.808;2023-06-04T00:25:57;15.30;98.10
38726;DHT22;24474;48.906;8.808;2023-06-04T00:28:22;15.30;98.10
38726;DHT22;24474;48.906;8.808;2023-06-04T00:30:48;15.30;98.10
38726;DHT22;24474;48.906;8.808;2023-06-04T00:33:14;15.20;98.20
38726;DHT22;24474;48.906;8.808;2023-06-04T00:35:39;15.20;98.30
38726;DHT22;24474;48.906;8.808;2023-06-04T00:38:05;15.20;98.30
38726;DHT22;24474;48.906;8.808;2023-06-04T00:40:31;15.10;98.30
38726;DHT22;24474;48.906;8.808;2023-06-04T00:42:56;15.10;98.30
38726;DHT22;24474;48.906;8.808;2023-06-04T00:45:23;15.10;98.40
38726;DHT22;24474;48.906;8.808;2023-06-04T00:47:51;15.10;98.40
38726;DHT22;24474;48.906;8.808;2023-06-04T00:50:18;15.00;98.40
38726;DHT22;24474;48.906;8.808;2023-06-04T00:52:44;15.00;98.50
38726;DHT22;24474;48.906;8.808;2023-06-04T00:55:10;15.00;98.40
38726;DHT22;24474;48.906;8.808;2023-06-04T00:57:37;14.90;98.40
38726;DHT22;24474;48.906;8.808;2023-06-04T01:00:03;14.90;98.50
38726;DHT22;24474;48.906;8.808;2023-06-04T01:02:31;14.80;98.50
38726;DHT22;24474;48.906;8.808;2023-06-04T01:05:21;14.70;98.60
38726;DHT22;24474;48.906;8.808;2023-06-04T01:07:50;14.70;98.70
38726;DHT22;24474;48.906;8.808;2023-06-04T01:10:16;14.70;98.70
38726;DHT22;24474;48.906;8.808;2023-06-04T01:12:43;14.70;98.60
38726;DHT22;24474;48.906;8.808;2023-06-04T01:15:10;14.60;98.70
38726;DHT22;24474;48.906;8.808;2023-06-04T01:17:41;14.60;98.60
38726;DHT22;24474;48.906;8.808;2023-06-04T01:25:43;14.50;98.90
38726;DHT22;24474;48.906;8.808;2023-06-04T01:28:12;14.50;99.00
38726;DHT22;24474;48.906;8.808;2023-06-04T01:30:43;14.50;99.20
38726;DHT22;24474;48.906;8.808;2023-06-04T01:33:14;14.50;99.20
38726;DHT22;24474;48.906;8.808;2023-06-04T01:35:40;14.50;98.90
38726;DHT22;24474;48.906;8.808;2023-06-04T01:38:07;14.40;98.70
38726;DHT22;24474;48.906;8.808;2023-06-04T01:40:32;14.40;98.60
38726;DHT22;24474;48.906;8.808;2023-06-04T01:42:58;14.40;98.50
38726;DHT22;24474;48.906;8.808;2023-06-04T01:45:26;14.40;98.60
38726;DHT22;24474;48.906;8.808;2023-06-04T01:47:53;14.30;98.50
38726;DHT22;24474;48.906;8.808;2023-06-04T01:50:18;14.30;98.70
38726;DHT22;24474;48.906;8.808;2023-06-04T01:52:45;14.20;98.70
38726;DHT22;24474;48.906;8.808;2023-06-04T01:55:12;14.20;98.80
38726;DHT22;24474;48.906;8.808;2023-06-04T01:57:43;14.10;98.80
38726;DHT22;24474;48.906;8.808;2023-06-04T02:00:16;14.10;98.90
38726;DHT22;24474;48.906;8.808;2023-06-04T02:02:44;14.00;99.00
38726;DHT22;24474;48.906;8.808;2023-06-04T02:05:14;14.00;99.10
38726;DHT22;24474;48.906;8.808;2023-06-04T02:07:45;14.00;99.20
38726;DHT22;24474;48.906;8.808;2023-06-04T02:10:13;14.00;99.20
38726;DHT22;24474;48.906;8.808;2023-06-04T02:12:40;13.90;99.10
38726;DHT22;24474;48.906;8.808;2023-06-04T02:15:09;14.00;99.10
38726;DHT22;24474;48.906;8.808;2023-06-04T02:17:35;13.90;99.00
38726;DHT22;24474;48.906;8.808;2023-06-04T02:20:08;14.00;98.70
38726;DHT22;24474;48.906;8.808;2023-06-04T02:22:35;13.90;98.60
38726;DHT22;24474;48.906;8.808;2023-06-04T02:25:02;13.90;98.50
38726;DHT22;24474;48.906;8.808;2023-06-04T02:27:27;13.90;99.10
38726;DHT22;24474;48.906;8.808;2023-06-04T02:29:53;13.90;99.10
38726;DHT22;24474;48.906;8.808;2023-06-04T02:32:19;13.80;99.10
38726;DHT22;24474;48.906;8.808;2023-06-04T02:34:45;13.80;99.20
38726;DHT22;24474;48.906;8.808;2023-06-04T02:37:10;13.80;99.30
38726;DHT22;24474;48.906;8.808;2023-06-04T02:39:36;13.70;99.40
38726;DHT22;24474;48.906;8.808;2023-06-04T02:42:01;13.70;99.30
38726;DHT22;24474;48.906;8.808;2023-06-04T02:44:27;13.70;99.00
38726;DHT22;24474;48.906;8.808;2023-06-04T02:46:55;13.60;99.10
38726;DHT22;24474;48.906;8.808;2023-06-04T02:49:20;13.60;99.40
38726;DHT22;24474;48.906;8.808;2023-06-04T02:51:47;13.60;99.90
38726;DHT22;24474;48.906;8.808;2023-06-04T02:54:12;13.50;99.90
38726;DHT22;24474;48.906;8.808;2023-06-04T02:56:38;13.50;99.20
38726;DHT22;24474;48.906;8.808;2023-06-04T02:59:04;13.40;99.10
38726;DHT22;24474;48.906;8.808;2023-06-04T03:01:30;13.40;98.60
38726;DHT22;24474;48.906;8.808;2023-06-04T03:03:56;13.40;98.20
38726;DHT22;24474;48.906;8.808;2023-06-04T03:06:26;13.30;98.50
38726;DHT22;24474;48.906;8.808;2023-06-04T03:08:52;13.30;98.80
38726;DHT22;24474;48.906;8.808;2023-06-04T03:11:18;13.30;98.80
38726;DHT22;24474;48.906;8.808;2023-06-04T03:13:46;13.20;98.80
38726;DHT22;24474;48.906;8.808;2023-06-04T03:16:12;13.20;99.00
38726;DHT22;24474;48.906;8.808;2023-06-04T03:18:40;13.20;99.10
38726;DHT22;24474;48.906;8.808;2023-06-04T03:21:06;13.20;99.20
38726;DHT22;24474;48.906;8.808;2023-06-04T03:23:35;13.20;99.40
38726;DHT22;24474;48.906;8.808;2023-06-04T03:26:02;13.20;99.20
38726;DHT22;24474;48.906;8.808;2023-06-04T03:28:28;13.20;99.30
38726;DHT22;24474;48.906;8.808;2023-06-04T03:30:53;13.10;98.60
38726;DHT22;24474;48.906;8.808;2023-06-04T03:33:19;13.20;98.50
38726;DHT22;24474;48.906;8.808;2023-06-04T03:35:45;13.10;98.40
38726;DHT22;24474;48.906;8.808;2023-06-04T03:38:11;13.00;98.40
38726;DHT22;24474;48.906;8.808;2023-06-04T03:40:36;13.00;98.70
38726;DHT22;24474;48.906;8.808;2023-06-04T03:43:02;13.00;98.50
38726;DHT22;24474;48.906;8.808;2023-06-04T03:45:30;13.00;98.40
38726;DHT22;24474;48.906;8.808;2023-06-04T03:47:56;13.00;98.20
38726;DHT22;24474;48.906;8.808;2023-06-04T03:50:21;13.00;98.10
38726;DHT22;24474;48.906;8.808;2023-06-04T03:52:50;13.00;98.00
38726;DHT22;24474;48.906;8.808;2023-06-04T03:55:16;13.00;98.10
38726;DHT22;24474;48.906;8.808;2023-06-04T03:57:41;13.00;98.10
38726;DHT22;24474;48.906;8.808;2023-06-04T04:00:09;13.00;98.00
38726;DHT22;24474;48.906;8.808;2023-06-04T04:02:38;12.90;97.90
38726;DHT22;24474;48.906;8.808;2023-06-04T04:05:04;12.90;97.90
38726;DHT22;24474;48.906;8.808;2023-06-04T04:07:30;13.00;98.00
38726;DHT22;24474;48.906;8.808;2023-06-04T04:09:55;13.00;98.10
38726;DHT22;24474;48.906;8.808;2023-06-04T04:12:21;13.00;98.00
38726;DHT22;24474;48.906;8.808;2023-06-04T04:14:47;12.90;98.00
38726;DHT22;24474;48.906;8.808;2023-06-04T04:17:14;13.00;97.70
38726;DHT22;24474;48.906;8.808;2023-06-04T04:19:42;13.00;97.70
38726;DHT22;24474;48.906;8.808;2023-06-04T04:22:10;13.00;97.70
38726;DHT22;24474;48.906;8.808;2023-06-04T04:24:36;13.00;97.70
38726;DHT22;24474;48.906;8.808;2023-06-04T04:27:03;13.00;98.00
38726;DHT22;24474;48.906;8.808;2023-06-04T04:29:29;13.00;98.40
38726;DHT22;24474;48.906;8.808;2023-06-04T04:31:58;12.90;98.50
38726;DHT22;24474;48.906;8.808;2023-06-04T04:34:34;12.90;98.40
38726;DHT22;24474;48.906;8.808;2023-06-04T04:37:03;12.90;98.50
38726;DHT22;24474;48.906;8.808;2023-06-04T04:39:28;12.90;98.50
38726;DHT22;24474;48.906;8.808;2023-06-04T04:41:54;12.80;98.60
38726;DHT22;24474;48.906;8.808;2023-06-04T04:44:20;12.90;98.40
38726;DHT22;24474;48.906;8.808;2023-06-04T04:46:49;12.90;98.10
38726;DHT22;24474;48.906;8.808;2023-06-04T04:49:15;12.90;97.80
38726;DHT22;24474;48.906;8.808;2023-06-04T04:51:40;12.90;97.80
38726;DHT22;24474;48.906;8.808;2023-06-04T04:54:06;13.00;97.70
38726;DHT22;24474;48.906;8.808;2023-06-04T04:56:35;13.00;97.60
38726;DHT22;24474;48.906;8.808;2023-06-04T04:59:00;13.00;97.70
38726;DHT22;24474;48.906;8.808;2023-06-04T05:01:26;13.10;97.90
38726;DHT22;24474;48.906;8.808;2023-06-04T05:03:52;13.10;98.00
38726;DHT22;24474;48.906;8.808;2023-06-04T05:06:18;13.10;98.00
38726;DHT22;24474;48.906;8.808;2023-06-04T05:08:44;13.20;97.80
38726;DHT22;24474;48.906;8.808;2023-06-04T05:11:09;13.20;97.70
38726;DHT22;24474;48.906;8.808;2023-06-04T05:13:38;13.30;97.50
38726;DHT22;24474;48.906;8.808;2023-06-04T05:16:04;13.30;97.40
38726;DHT22;24474;48.906;8.808;2023-06-04T05:18:33;13.30;96.40
38726;DHT22;24474;48.906;8.808;2023-06-04T05:20:59;13.40;96.80
38726;DHT22;24474;48.906;8.808;2023-06-04T05:23:28;13.40;96.40
38726;DHT22;24474;48.906;8.808;2023-06-04T05:25:59;13.50;96.20
38726;DHT22;24474;48.906;8.808;2023-06-04T05:28:26;13.50;96.00
38726;DHT22;24474;48.906;8.808;2023-06-04T05:30:53;13.60;96.10
38726;DHT22;24474;48.906;8.808;2023-06-04T05:33:27;13.60;96.30
38726;DHT22;24474;48.906;8.808;2023-06-04T05:35:54;13.70;96.00
38726;DHT22;24474;48.906;8.808;2023-06-04T05:38:20;13.70;96.10
38726;DHT22;24474;48.906;8.808;2023-06-04T05:40:49;13.70;95.90
38726;DHT22;24474;48.906;8.808;2023-06-04T05:43:16;13.80;96.20
38726;DHT22;24474;48.906;8.808;2023-06-04T05:45:41;14.00;95.90
38726;DHT22;24474;48.906;8.808;2023-06-04T05:48:07;14.30;95.90
38726;DHT22;24474;48.906;8.808;2023-06-04T05:50:33;14.70;95.20
38726;DHT22;24474;48.906;8.808;2023-06-04T05:52:59;15.20;95.00
38726;DHT22;24474;48.906;8.808;2023-06-04T05:55:24;15.70;94.60
38726;DHT22;24474;48.906;8.808;2023-06-04T05:57:50;16.10;93.70
38726;DHT22;24474;48.906;8.808;2023-06-04T06:00:18;16.40;93.70
38726;DHT22;24474;48.906;8.808;2023-06-04T06:02:44;16.50;93.40
38726;DHT22;24474;48.906;8.808;2023-06-04T06:05:11;16.70;93.10
38726;DHT22;24474;48.906;8.808;2023-06-04T06:07:36;16.70;92.80
38726;DHT22;24474;48.906;8.808;2023-06-04T06:10:03;16.80;92.80
38726;DHT22;24474;48.906;8.808;2023-06-04T06:12:29;16.80;92.70
38726;DHT22;24474;48.906;8.808;2023-06-04T06:14:54;16.50;93.20
38726;DHT22;24474;48.906;8.808;2023-06-04T06:17:21;16.20;93.60
38726;DHT22;24474;48.906;8.808;2023-06-04T06:19:46;15.90;93.70
38726;DHT22;24474;48.906;8.808;2023-06-04T06:22:12;15.70;94.50
38726;DHT22;24474;48.906;8.808;2023-06-04T06:24:39;15.60;94.80
38726;DHT22;24474;48.906;8.808;2023-06-04T06:27:05;15.50;94.50
38726;DHT22;24474;48.906;8.808;2023-06-04T06:29:31;15.50;94.70
38726;DHT22;24474;48.906;8.808;2023-06-04T06:31:57;15.50;95.00
38726;DHT22;24474;48.906;8.808;2023-06-04T06:34:23;15.50;94.90
38726;DHT22;24474;48.906;8.808;2023-06-04T06:36:48;15.40;94.80
38726;DHT22;24474;48.906;8.808;2023-06-04T06:39:15;15.50;95.10
38726;DHT22;24474;48.906;8.808;2023-06-04T06:41:41;15.50;95.30
38726;DHT22;24474;48.906;8.808;2023-06-04T06:44:07;15.50;95.40
38726;DHT22;24474;48.906;8.808;2023-06-04T06:46:33;15.60;95.10
38726;DHT22;24474;48.906;8.808;2023-06-04T06:48:59;15.60;95.70
38726;DHT22;24474;48.906;8.808;2023-06-04T06:51:25;15.70;95.60
38726;DHT22;24474;48.906;8.808;2023-06-04T06:53:50;15.80;95.90
38726;DHT22;24474;48.906;8.808;2023-06-04T06:56:16;15.90;96.00
38726;DHT22;24474;48.906;8.808;2023-06-04T06:58:44;15.90;95.50
38726;DHT22;24474;48.906;8.808;2023-06-04T07:01:09;16.00;95.60
38726;DHT22;24474;48.906;8.808;2023-06-04T07:03:36;16.00;95.90
38726;DHT22;24474;48.906;8.808;2023-06-04T07:06:02;16.10;95.10
38726;DHT22;24474;48.906;8.808;2023-06-04T07:08:27;16.10;95.30
38726;DHT22;24474;48.906;8.808;2023-06-04T07:10:53;16.10;94.90
38726;DHT22;24474;48.906;8.808;2023-06-04T07:13:19;16.10;94.50
38726;DHT22;24474;48.906;8.808;2023-06-04T07:15:45;16.00;94.70
38726;DHT22;24474;48.906;8.808;2023-06-04T07:18:15;16.00;94.80
38726;DHT22;24474;48.906;8.808;2023-06-04T07:20:40;16.10;95.20
38726;DHT22;24474;48.906;8.808;2023-06-04T07:23:06;16.10;95.60
38726;DHT22;24474;48.906;8.808;2023-06-04T07:25:32;16.20;95.70
38726;DHT22;24474;48.906;8.808;2023-06-04T07:27:58;16.30;95.00
38726;DHT22;24474;48.906;8.808;2023-06-04T07:30:27;16.40;95.10
38726;DHT22;24474;48.906;8.808;2023-06-04T07:32:53;16.40;95.20
38726;DHT22;24474;48.906;8.808;2023-06-04T07:35:18;16.50;95.30
38726;DHT22;24474;48.906;8.808;2023-06-04T07:37:44;16.60;95.70
38726;DHT22;24474;48.906;8.808;2023-06-04T07:40:13;16.70;94.10
38726;DHT22;24474;48.906;8.808;2023-06-04T07:42:39;16.70;94.30
38726;DHT22;24474;48.906;8.808;2023-06-04T07:45:05;16.80;94.60
38726;DHT22;24474;48.906;8.808;2023-06-04T07:47:31;16.90;95.00
38726;DHT22;24474;48.906;8.808;2023-06-04T07:49:57;16.90;94.40
38726;DHT22;24474;48.906;8.808;2023-06-04T07:52:22;17.00;94.90
38726;DHT22;24474;48.906;8.808;2023-06-04T07:54:48;17.00;95.10
38726;DHT22;24474;48.906;8.808;2023-06-04T07:57:15;17.10;94.60
38726;DHT22;24474;48.906;8.808;2023-06-04T07:59:42;17.10;95.40
38726;DHT22;24474;48.906;8.808;2023-06-04T08:02:10;17.30;94.30
38726;DHT22;24474;48.906;8.808;2023-06-04T08:04:36;17.30;94.40
38726;DHT22;24474;48.906;8.808;2023-06-04T08:07:01;17.30;94.60
38726;DHT22;24474;48.906;8.808;2023-06-04T08:09:27;17.40;95.50
38726;DHT22;24474;48.906;8.808;2023-06-04T08:11:53;17.50;95.00
38726;DHT22;24474;48.906;8.808;2023-06-04T08:14:22;17.60;95.00
38726;DHT22;24474;48.906;8.808;2023-06-04T08:16:49;17.60;94.80
38726;DHT22;24474;48.906;8.808;2023-06-04T08:19:18;17.70;94.70
38726;DHT22;24474;48.906;8.808;2023-06-04T08:21:44;17.80;94.40
38726;DHT22;24474;48.906;8.808;2023-06-04T08:24:10;17.80;93.90
38726;DHT22;24474;48.906;8.808;2023-06-04T08:26:37;17.90;94.50
38726;DHT22;24474;48.906;8.808;2023-06-04T08:29:04;17.90;93.80
38726;DHT22;24474;48.906;8.808;2023-06-04T08:31:30;18.00;93.80
38726;DHT22;24474;48.906;8.808;2023-06-04T08:33:56;18.10;94.40
38726;DHT22;24474;48.906;8.808;2023-06-04T08:36:23;18.20;94.30
38726;DHT22;24474;48.906;8.808;2023-06-04T08:38:50;18.20;93.90
38726;DHT22;24474;48.906;8.808;2023-06-04T08:44:04;18.20;93.80
38726;DHT22;24474;48.906;8.808;2023-06-04T08:46:32;18.30;94.40
38726;DHT22;24474;48.906;8.808;2023-06-04T08:49:02;18.30;94.00
38726;DHT22;24474;48.906;8.808;2023-06-04T08:51:32;18.40;93.80
38726;DHT22;24474;48.906;8.808;2023-06-04T08:54:00;18.40;94.30
38726;DHT22;24474;48.906;8.808;2023-06-04T08:56:29;18.50;93.60
38726;DHT22;24474;48.906;8.808;2023-06-04T08:59:03;18.50;93.50
38726;DHT22;24474;48.906;8.808;2023-06-04T09:01:31;18.50;93.70
38726;DHT22;24474;48.906;8.808;2023-06-04T09:03:57;18.60;93.80
38726;DHT22;24474;48.906;8.808;2023-06-04T09:06:26;18.70;93.80
38726;DHT22;24474;48.906;8.808;2023-06-04T09:08:58;18.80;93.00
38726;DHT22;24474;48.906;8.808;2023-06-04T09:11:27;18.90;93.40
38726;DHT22;24474;48.906;8.808;2023-06-04T09:13:55;19.00;92.50
38726;DHT22;24474;48.906;8.808;2023-06-04T09:16:24;19.00;92.70
38726;DHT22;24474;48.906;8.808;2023-06-04T09:18:50;19.10;92.50
38726;DHT22;24474;48.906;8.808;2023-06-04T09:21:15;19.10;91.90
38726;DHT22;24474;48.906;8.808;2023-06-04T09:26:11;19.20;93.10
38726;DHT22;24474;48.906;8.808;2023-06-04T09:28:44;19.30;91.20
38726;DHT22;24474;48.906;8.808;2023-06-04T09:31:14;19.40;91.60
38726;DHT22;24474;48.906;8.808;2023-06-04T09:33:50;19.40;91.50
38726;DHT22;24474;48.906;8.808;2023-06-04T09:36:16;19.40;91.90
38726;DHT22;24474;48.906;8.808;2023-06-04T09:38:42;19.50;91.90
38726;DHT22;24474;48.906;8.808;2023-06-04T09:41:12;19.60;91.50
38726;DHT22;24474;48.906;8.808;2023-06-04T09:43:38;19.60;91.60
38726;DHT22;24474;48.906;8.808;2023-06-04T09:46:15;19.70;91.90
38726;DHT22;24474;48.906;8.808;2023-06-04T09:48:42;19.70;91.30
38726;DHT22;24474;48.906;8.808;2023-06-04T09:51:12;19.80;91.10
38726;DHT22;24474;48.906;8.808;2023-06-04T09:53:38;19.90;91.60
38726;DHT22;24474;48.906;8.808;2023-06-04T09:56:05;19.90;90.70
38726;DHT22;24474;48.906;8.808;2023-06-04T09:58:37;20.00;91.00
38726;DHT22;24474;48.906;8.808;2023-06-04T10:01:05;20.00;91.00
38726;DHT22;24474;48.906;8.808;2023-06-04T10:03:33;20.00;91.60
38726;DHT22;24474;48.906;8.808;2023-06-04T10:06:01;20.10;91.40
38726;DHT22;24474;48.906;8.808;2023-06-04T10:08:29;20.30;92.30
38726;DHT22;24474;48.906;8.808;2023-06-04T10:10:59;20.30;90.70
38726;DHT22;24474;48.906;8.808;2023-06-04T10:13:38;20.30;90.60
38726;DHT22;24474;48.906;8.808;2023-06-04T10:16:07;20.50;90.20
38726;DHT22;24474;48.906;8.808;2023-06-04T10:18:33;20.50;90.10
38726;DHT22;24474;48.906;8.808;2023-06-04T10:20:59;20.50;90.40
38726;DHT22;24474;48.906;8.808;2023-06-04T10:23:26;20.60;90.30
38726;DHT22;24474;48.906;8.808;2023-06-04T10:25:54;20.60;89.60
38726;DHT22;24474;48.906;8.808;2023-06-04T10:28:22;20.60;91.20
38726;DHT22;24474;48.906;8.808;2023-06-04T10:30:49;20.70;91.30
38726;DHT22;24474;48.906;8.808;2023-06-04T10:33:18;20.80;90.70
38726;DHT22;24474;48.906;8.808;2023-06-04T10:35:45;20.80;89.50
38726;DHT22;24474;48.906;8.808;2023-06-04T10:38:13;20.90;90.20
38726;DHT22;24474;48.906;8.808;2023-06-04T10:40:40;21.00;90.60
38726;DHT22;24474;48.906;8.808;2023-06-04T10:43:10;21.00;90.70
38726;DHT22;24474;48.906;8.808;2023-06-04T10:45:36;21.10;88.30
38726;DHT22;24474;48.906;8.808;2023-06-04T10:48:04;21.10;88.70
38726;DHT22;24474;48.906;8.808;2023-06-04T10:50:31;21.20;89.10
38726;DHT22;24474;48.906;8.808;2023-06-04T10:52:59;21.20;87.50
38726;DHT22;24474;48.906;8.808;2023-06-04T10:55:29;21.30;87.60
38726;DHT22;24474;48.906;8.808;2023-06-04T10:57:57;21.30;89.00
38726;DHT22;24474;48.906;8.808;2023-06-04T11:00:34;21.40;89.30
38726;DHT22;24474;48.906;8.808;2023-06-04T11:02:59;21.40;87.10
38726;DHT22;24474;48.906;8.808;2023-06-04T11:05:43;21.50;86.50
38726;DHT22;24474;48.906;8.808;2023-06-04T11:08:13;21.40;86.20
38726;DHT22;24474;48.906;8.808;2023-06-04T11:10:44;21.40;86.20
38726;DHT22;24474;48.906;8.808;2023-06-04T11:13:10;21.40;85.50
38726;DHT22;24474;48.906;8.808;2023-06-04T11:15:46;21.40;85.90
38726;DHT22;24474;48.906;8.808;2023-06-04T11:18:22;21.50;84.60
38726;DHT22;24474;48.906;8.808;2023-06-04T11:20:59;21.50;85.40
38726;DHT22;24474;48.906;8.808;2023-06-04T11:23:25;21.50;86.70
38726;DHT22;24474;48.906;8.808;2023-06-04T11:25:55;21.50;87.30
38726;DHT22;24474;48.906;8.808;2023-06-04T11:28:21;21.60;85.00
38726;DHT22;24474;48.906;8.808;2023-06-04T11:31:00;21.60;85.70
38726;DHT22;24474;48.906;8.808;2023-06-04T11:33:43;21.70;85.10
38726;DHT22;24474;48.906;8.808;2023-06-04T11:36:10;21.60;84.20
38726;DHT22;24474;48.906;8.808;2023-06-04T11:38:36;21.50;84.70
38726;DHT22;24474;48.906;8.808;2023-06-04T11:41:04;21.60;87.40
38726;DHT22;24474;48.906;8.808;2023-06-04T11:43:32;21.60;85.40
38726;DHT22;24474;48.906;8.808;2023-06-04T11:45:58;21.70;84.70
38726;DHT22;24474;48.906;8.808;2023-06-04T11:48:24;21.80;84.90
38726;DHT22;24474;48.906;8.808;2023-06-04T11:50:53;21.80;84.80
38726;DHT22;24474;48.906;8.808;2023-06-04T11:53:19;21.90;85.00
38726;DHT22;24474;48.906;8.808;2023-06-04T11:55:45;21.90;82.80
38726;DHT22;24474;48.906;8.808;2023-06-04T11:58:11;21.90;84.00
38726;DHT22;24474;48.906;8.808;2023-06-04T12:00:37;22.00;83.60
38726;DHT22;24474;48.906;8.808;2023-06-04T12:03:02;22.00;83.30
38726;DHT22;24474;48.906;8.808;2023-06-04T12:05:31;22.10;83.30
38726;DHT22;24474;48.906;8.808;2023-06-04T12:08:08;22.10;83.20
38726;DHT22;24474;48.906;8.808;2023-06-04T12:10:39;22.10;84.60
38726;DHT22;24474;48.906;8.808;2023-06-04T12:13:04;22.20;83.50
38726;DHT22;24474;48.906;8.808;2023-06-04T12:15:30;22.20;84.00
38726;DHT22;24474;48.906;8.808;2023-06-04T12:17:56;22.30;83.50
38726;DHT22;24474;48.906;8.808;2023-06-04T12:20:39;22.30;83.00
38726;DHT22;24474;48.906;8.808;2023-06-04T12:23:05;22.40;82.20
38726;DHT22;24474;48.906;8.808;2023-06-04T12:25:32;22.40;82.60
38726;DHT22;24474;48.906;8.808;2023-06-04T12:27:58;22.30;81.00
38726;DHT22;24474;48.906;8.808;2023-06-04T12:30:35;22.30;83.90
38726;DHT22;24474;48.906;8.808;2023-06-04T12:33:01;22.30;83.10
38726;DHT22;24474;48.906;8.808;2023-06-04T12:35:27;22.40;82.50
38726;DHT22;24474;48.906;8.808;2023-06-04T12:37:53;22.40;82.60
38726;DHT22;24474;48.906;8.808;2023-06-04T12:40:21;22.50;82.10
38726;DHT22;24474;48.906;8.808;2023-06-04T12:42:50;22.50;80.60
38726;DHT22;24474;48.906;8.808;2023-06-04T12:45:16;22.50;81.30
38726;DHT22;24474;48.906;8.808;2023-06-04T12:47:42;22.50;82.00
38726;DHT22;24474;48.906;8.808;2023-06-04T12:50:08;22.50;81.80
38726;DHT22;24474;48.906;8.808;2023-06-04T12:52:34;22.60;80.70
38726;DHT22;24474;48.906;8.808;2023-06-04T12:55:00;22.60;80.50
38726;DHT22;24474;48.906;8.808;2023-06-04T12:57:25;22.60;81.70
38726;DHT22;24474;48.906;8.808;2023-06-04T12:59:53;22.60;81.30
38726;DHT22;24474;48.906;8.808;2023-06-04T13:02:19;22.70;82.10
38726;DHT22;24474;48.906;8.808;2023-06-04T13:04:44;22.70;80.50
38726;DHT22;24474;48.906;8.808;2023-06-04T13:07:11;22.70;81.20
38726;DHT22;24474;48.906;8.808;2023-06-04T13:09:37;22.70;81.60
38726;DHT22;24474;48.906;8.808;2023-06-04T13:12:03;22.70;81.00
38726;DHT22;24474;48.906;8.808;2023-06-04T13:14:31;22.70;81.10
38726;DHT22;24474;48.906;8.808;2023-06-04T13:16:59;22.70;80.40
38726;DHT22;24474;48.906;8.808;2023-06-04T13:19:24;22.80;80.70
38726;DHT22;24474;48.906;8.808;2023-06-04T13:21:50;22.70;79.40
38726;DHT22;24474;48.906;8.808;2023-06-04T13:24:16;22.70;79.60
38726;DHT22;24474;48.906;8.808;2023-06-04T13:26:41;22.80;79.50
38726;DHT22;24474;48.906;8.808;2023-06-04T13:29:07;22.80;80.10
38726;DHT22;24474;48.906;8.808;2023-06-04T13:31:33;22.80;80.90
38726;DHT22;24474;48.906;8.808;2023-06-04T13:33:58;22.90;80.40
38726;DHT22;24474;48.906;8.808;2023-06-04T13:36:24;23.00;79.20
38726;DHT22;24474;48.906;8.808;2023-06-04T13:38:50;23.00;80.10
38726;DHT22;24474;48.906;8.808;2023-06-04T13:41:18;23.00;80.40
38726;DHT22;24474;48.906;8.808;2023-06-04T13:43:46;23.00;78.90
38726;DHT22;24474;48.906;8.808;2023-06-04T13:46:12;23.00;79.90
38726;DHT22;24474;48.906;8.808;2023-06-04T13:48:37;23.00;78.60
38726;DHT22;24474;48.906;8.808;2023-06-04T13:51:03;23.00;78.90
38726;DHT22;24474;48.906;8.808;2023-06-04T13:53:29;23.00;77.40
38726;DHT22;24474;48.906;8.808;2023-06-04T13:55:55;23.00;79.60
38726;DHT22;24474;48.906;8.808;2023-06-04T13:58:26;23.10;77.70
38726;DHT22;24474;48.906;8.808;2023-06-04T14:00:52;23.10;76.60
38726;DHT22;24474;48.906;8.808;2023-06-04T14:03:18;23.10;76.30
38726;DHT22;24474;48.906;8.808;2023-06-04T14:05:44;23.10;76.80
38726;DHT22;24474;48.906;8.808;2023-06-04T14:08:09;23.10;76.90
38726;DHT22;24474;48.906;8.808;2023-06-04T14:10:37;23.10;77.00
38726;DHT22;24474;48.906;8.808;2023-06-04T14:13:06;23.10;77.20
38726;DHT22;24474;48.906;8.808;2023-06-04T14:15:32;23.10;75.40
38726;DHT22;24474;48.906;8.808;2023-06-04T14:17:58;23.10;76.20
38726;DHT22;24474;48.906;8.808;2023-06-04T14:20:23;23.10;77.10
38726;DHT22;24474;48.906;8.808;2023-06-04T14:22:49;23.10;75.20
38726;DHT22;24474;48.906;8.808;2023-06-04T14:25:15;23.20;76.70
38726;DHT22;24474;48.906;8.808;2023-06-04T14:27:40;23.20;76.20
38726;DHT22;24474;48.906;8.808;2023-06-04T14:30:10;23.30;77.40
38726;DHT22;24474;48.906;8.808;2023-06-04T14:32:36;23.30;75.80
38726;DHT22;24474;48.906;8.808;2023-06-04T14:35:01;23.30;76.00
38726;DHT22;24474;48.906;8.808;2023-06-04T14:37:27;23.30;74.80
38726;DHT22;24474;48.906;8.808;2023-06-04T14:39:53;23.30;75.00
38726;DHT22;24474;48.906;8.808;2023-06-04T14:42:18;23.30;74.20
38726;DHT22;24474;48.906;8.808;2023-06-04T14:44:45;23.30;74.60
38726;DHT22;24474;48.906;8.808;2023-06-04T14:47:11;23.40;72.80
38726;DHT22;24474;48.906;8.808;2023-06-04T14:49:37;23.30;74.30
38726;DHT22;24474;48.906;8.808;2023-06-04T14:52:03;23.30;73.90
38726;DHT22;24474;48.906;8.808;2023-06-04T14:54:29;23.30;73.20
38726;DHT22;24474;48.906;8.808;2023-06-04T14:56:55;23.30;72.20
38726;DHT22;24474;48.906;8.808;2023-06-04T14:59:21;23.30;72.60
38726;DHT22;24474;48.906;8.808;2023-06-04T15:01:46;23.30;72.60
38726;DHT22;24474;48.906;8.808;2023-06-04T15:04:12;23.30;73.50
38726;DHT22;24474;48.906;8.808;2023-06-04T15:06:38;23.30;72.60
38726;DHT22;24474;48.906;8.808;2023-06-04T15:09:04;23.40;74.20
38726;DHT22;24474;48.906;8.808;2023-06-04T15:11:33;23.40;72.30
38726;DHT22;24474;48.906;8.808;2023-06-04T15:13:58;23.40;72.30
38726;DHT22;24474;48.906;8.808;2023-06-04T15:16:24;23.50;70.30
38726;DHT22;24474;48.906;8.808;2023-06-04T15:18:50;23.50;70.20
38726;DHT22;24474;48.906;8.808;2023-06-04T15:21:15;23.40;69.50
38726;DHT22;24474;48.906;8.808;2023-06-04T15:23:41;23.40;71.00
38726;DHT22;24474;48.906;8.808;2023-06-04T15:26:10;23.50;72.40
38726;DHT22;24474;48.906;8.808;2023-06-04T15:28:35;23.50;70.50
38726;DHT22;24474;48.906;8.808;2023-06-04T15:31:01;23.60;69.70
38726;DHT22;24474;48.906;8.808;2023-06-04T15:33:27;23.60;69.80
38726;DHT22;24474;48.906;8.808;2023-06-04T15:35:53;23.60;70.60
38726;DHT22;24474;48.906;8.808;2023-06-04T15:38:18;23.60;69.70
38726;DHT22;24474;48.906;8.808;2023-06-04T15:40:44;23.60;70.80